createdAt,value
2023-04-20T00:00:11.730Z,3.58
2023-04-20T00:02:42.026Z,2.50
2023-04-20T00:05:10.362Z,2.17
2023-04-20T00:07:37.521Z,2.67
2023-04-20T00:10:05.020Z,2.20
2023-04-20T00:12:31.986Z,2.60
2023-04-20T00:14:58.899Z,2.17
2023-04-20T00:17:26.096Z,2.38
2023-04-20T00:19:53.016Z,2.42
2023-04-20T00:22:19.953Z,2.13
2023-04-20T00:24:46.882Z,2.83
2023-04-20T00:27:13.771Z,2.20
2023-04-20T00:29:42.968Z,2.50
2023-04-20T00:32:09.956Z,2.05
2023-04-20T00:34:37.131Z,1.92
2023-04-20T00:37:04.120Z,2.22
2023-04-20T00:39:31.146Z,2.22
2023-04-20T00:42:07.766Z,1.95
2023-04-20T00:44:34.967Z,1.77
2023-04-20T00:47:02.044Z,2.72
2023-04-20T00:49:30.850Z,1.95
2023-04-20T00:52:01.245Z,1.30
2023-04-20T00:54:29.915Z,1.50
2023-04-20T00:56:58.208Z,1.77
2023-04-20T00:59:25.547Z,1.85
2023-04-20T01:01:53.076Z,1.50
2023-04-20T01:04:20.749Z,1.73
2023-04-20T01:06:47.823Z,1.40
2023-04-20T01:09:14.966Z,1.80
2023-04-20T01:11:42.007Z,1.48
2023-04-20T01:14:09.018Z,1.58
2023-04-20T01:16:36.756Z,1.90
2023-04-20T01:19:04.803Z,1.67
2023-04-20T01:21:33.661Z,1.60
2023-04-20T01:24:01.243Z,1.52
2023-04-20T01:26:28.306Z,2.05
2023-04-20T01:28:57.080Z,1.50
2023-04-20T01:31:24.001Z,1.83
2023-04-20T01:33:54.520Z,2.10
2023-04-20T01:36:21.832Z,1.90
2023-04-20T01:38:49.550Z,2.03
2023-04-20T01:41:19.176Z,1.75
2023-04-20T01:43:46.331Z,2.47
2023-04-20T01:46:13.592Z,1.20
2023-04-20T01:48:40.730Z,1.83
2023-04-20T01:51:09.603Z,2.33
2023-04-20T01:53:36.627Z,1.40
2023-04-20T01:56:03.709Z,2.13
2023-04-20T01:58:31.288Z,2.20
2023-04-20T02:00:58.428Z,1.95
2023-04-20T02:03:27.903Z,2.15
2023-04-20T02:05:54.972Z,2.20
2023-04-20T02:08:23.756Z,2.03
2023-04-20T02:10:50.697Z,2.45
2023-04-20T02:13:17.682Z,1.77
2023-04-20T02:15:45.917Z,1.85
2023-04-20T02:18:12.969Z,2.25
2023-04-20T02:20:39.938Z,2.08
2023-04-20T02:23:07.025Z,2.97
2023-04-20T02:25:39.988Z,2.17
2023-04-20T02:28:07.109Z,2.83
2023-04-20T02:30:34.048Z,2.20
2023-04-20T02:33:01.382Z,2.40
2023-04-20T02:35:28.438Z,2.40
2023-04-20T02:37:55.433Z,2.50
2023-04-20T02:40:22.471Z,3.03
2023-04-20T02:42:49.389Z,2.53
2023-04-20T02:45:17.307Z,2.30
2023-04-20T02:47:46.993Z,2.22
2023-04-20T02:50:15.133Z,2.05
2023-04-20T02:53:01.318Z,2.33
2023-04-20T02:55:29.946Z,2.15
2023-04-20T02:58:00.597Z,2.45
2023-04-20T03:00:44.218Z,2.95
2023-04-20T03:03:11.358Z,3.78
2023-04-20T03:05:38.389Z,2.70
2023-04-20T03:08:07.259Z,2.50
2023-04-20T03:10:34.383Z,2.80
2023-04-20T03:13:17.313Z,2.15
2023-04-20T03:15:56.724Z,3.30
2023-04-20T03:18:29.277Z,2.53
2023-04-20T03:20:56.798Z,3.00
2023-04-20T03:23:26.372Z,2.65
2023-04-20T03:25:53.915Z,2.50
2023-04-20T03:28:42.270Z,2.55
2023-04-20T03:31:13.006Z,2.67
2023-04-20T03:33:40.504Z,2.10
2023-04-20T03:36:07.734Z,2.95
2023-04-20T03:38:44.518Z,3.53
2023-04-20T03:41:12.088Z,2.45
2023-04-20T03:43:39.137Z,2.30
2023-04-20T03:46:06.102Z,2.80
2023-04-20T03:48:34.041Z,2.50
2023-04-20T03:51:15.883Z,3.33
2023-04-20T03:53:45.424Z,4.00
2023-04-20T04:00:39.057Z,3.10
2023-04-20T04:03:11.175Z,2.65
2023-04-20T04:05:41.640Z,3.38
2023-04-20T04:08:13.697Z,2.97
2023-04-20T04:10:40.868Z,2.70
2023-04-20T04:13:27.936Z,2.78
2023-04-20T04:16:06.409Z,2.50
2023-04-20T04:19:03.088Z,2.47
2023-04-20T04:21:55.642Z,2.28
2023-04-20T04:24:21.644Z,2.33
2023-04-20T04:30:12.302Z,2.67
2023-04-20T04:32:55.655Z,2.85
2023-04-20T04:35:34.471Z,2.58
2023-04-20T04:38:03.332Z,3.25
2023-04-20T04:40:37.868Z,2.40
2023-04-20T04:43:05.484Z,3.25
2023-04-20T04:45:40.423Z,2.83
2023-04-20T04:48:18.837Z,3.50
2023-04-20T04:50:46.700Z,3.25
2023-04-20T04:53:15.018Z,3.45
2023-04-20T04:55:44.156Z,2.40
2023-04-20T04:58:13.612Z,2.67
2023-04-20T05:00:40.641Z,2.80
2023-04-20T05:03:10.339Z,2.47
2023-04-20T05:05:38.235Z,2.78
2023-04-20T05:08:12.982Z,2.78
2023-04-20T05:10:42.223Z,2.70
2023-04-20T05:14:46.800Z,3.15
2023-04-20T05:16:31.987Z,2.58
2023-04-20T05:19:06.472Z,2.78
2023-04-20T05:21:50.052Z,2.92
2023-04-20T05:24:22.303Z,2.60
2023-04-20T05:26:49.381Z,2.95
2023-04-20T05:29:31.804Z,3.20
2023-04-20T05:32:06.778Z,2.90
2023-04-20T05:34:34.087Z,2.67
2023-04-20T05:37:18.370Z,3.45
2023-04-20T05:39:46.638Z,2.55
2023-04-20T05:42:24.004Z,2.78
2023-04-20T05:44:51.309Z,2.97
2023-04-20T05:47:18.370Z,2.88
2023-04-20T05:49:48.741Z,2.25
2023-04-20T05:52:20.533Z,2.20
2023-04-20T05:55:15.507Z,2.97
2023-04-20T05:57:46.600Z,3.35
2023-04-20T06:00:30.100Z,2.95
2023-04-20T06:03:09.351Z,3.03
2023-04-20T06:05:48.424Z,2.58
2023-04-20T06:08:21.565Z,3.08
2023-04-20T06:16:10.106Z,3.33
2023-04-20T06:18:40.997Z,2.85
2023-04-20T06:21:46.489Z,2.90
2023-04-20T06:24:19.576Z,2.85
2023-04-20T06:29:25.137Z,2.65
2023-04-20T06:32:01.304Z,2.17
2023-04-20T06:34:39.678Z,3.08
2023-04-20T06:37:23.004Z,2.80
2023-04-20T06:42:53.775Z,2.30
2023-04-20T06:45:34.494Z,2.92
2023-04-20T06:48:04.044Z,2.55
2023-04-20T06:51:01.912Z,3.00
2023-04-20T06:53:25.543Z,2.47
2023-04-20T06:55:56.798Z,1.88
2023-04-20T06:58:31.439Z,2.58
2023-04-20T07:01:01.141Z,2.75
2023-04-20T07:03:39.229Z,3.38
2023-04-20T07:06:07.371Z,2.03
2023-04-20T07:08:34.817Z,2.10
2023-04-20T07:11:02.174Z,3.05
2023-04-20T07:13:33.919Z,2.75
2023-04-20T07:16:01.275Z,2.88
2023-04-20T07:18:28.326Z,2.25
2023-04-20T07:20:55.362Z,2.47
2023-04-20T07:23:22.312Z,2.40
2023-04-20T07:25:52.055Z,2.63
2023-04-20T07:31:06.007Z,2.63
2023-04-20T07:33:35.648Z,2.13
2023-04-20T07:36:04.863Z,2.83
2023-04-20T07:38:31.922Z,3.50
2023-04-20T07:40:58.887Z,3.58
2023-04-20T07:43:25.840Z,2.92
2023-04-20T07:45:55.453Z,2.75
2023-04-20T07:48:25.671Z,2.78
2023-04-20T07:51:00.323Z,3.63
2023-04-20T07:53:33.182Z,2.95
2023-04-20T07:56:00.467Z,3.20
2023-04-20T07:58:39.650Z,3.08
2023-04-20T08:01:21.263Z,3.70
2023-04-20T08:04:04.731Z,3.50
2023-04-20T08:06:38.651Z,4.72
2023-04-20T08:09:33.662Z,3.28
2023-04-20T08:12:01.657Z,3.72
2023-04-20T08:14:52.490Z,3.90
2023-04-20T08:17:29.089Z,4.43
2023-04-20T08:20:02.618Z,4.43
2023-04-20T08:22:37.579Z,3.67
2023-04-20T08:25:37.198Z,4.05
2023-04-20T08:28:24.239Z,3.88
2023-04-20T08:31:04.776Z,3.63
2023-04-20T08:34:21.309Z,3.13
2023-04-20T08:36:35.728Z,4.53
2023-04-20T08:39:16.990Z,4.43
2023-04-20T08:42:01.264Z,4.30
2023-04-20T08:44:44.422Z,3.92
2023-04-20T08:47:25.671Z,4.00
2023-04-20T08:50:44.430Z,4.20
2023-04-20T08:52:52.205Z,4.50
2023-04-20T08:56:10.605Z,4.40
2023-04-20T08:58:20.714Z,5.32
2023-04-20T09:01:12.966Z,4.60
2023-04-20T09:03:50.865Z,4.63
2023-04-20T09:06:23.280Z,5.07
2023-04-20T09:09:20.011Z,5.68
2023-04-20T09:12:14.930Z,4.70
2023-04-20T09:14:47.190Z,4.88
2023-04-20T09:17:17.879Z,5.47
2023-04-20T09:19:57.001Z,4.82
2023-04-20T09:23:02.761Z,5.25
2023-04-20T09:25:43.937Z,5.28
2023-04-20T09:28:47.652Z,5.13
2023-04-20T09:31:29.312Z,5.57
2023-04-20T09:34:12.911Z,5.00
2023-04-20T09:36:56.139Z,5.10
2023-04-20T09:39:47.271Z,5.80
2023-04-20T09:42:17.947Z,5.80
2023-04-20T09:44:50.426Z,5.82
2023-04-20T09:47:34.499Z,6.03
2023-04-20T09:50:14.074Z,5.80
2023-04-20T09:53:02.178Z,5.78
2023-04-20T09:55:47.154Z,5.93
2023-04-20T09:58:23.172Z,6.28
2023-04-20T10:01:11.234Z,5.35
2023-04-20T10:03:48.851Z,5.85
2023-04-20T10:09:26.147Z,6.22
2023-04-20T10:12:06.468Z,5.90
2023-04-20T10:17:33.967Z,6.05
2023-04-20T10:20:10.714Z,5.30
2023-04-20T10:22:55.119Z,5.85
2023-04-20T10:28:44.914Z,6.70
2023-04-20T10:31:30.960Z,7.18
2023-04-20T10:34:00.989Z,6.93
2023-04-20T10:36:42.452Z,6.65
2023-04-20T10:39:24.717Z,6.75
2023-04-20T10:42:03.228Z,6.15
2023-04-20T10:44:35.528Z,5.95
2023-04-20T10:47:15.659Z,6.07
2023-04-20T10:50:05.403Z,6.43
2023-04-20T10:53:05.879Z,6.25
2023-04-20T10:56:20.906Z,6.32
2023-04-20T10:58:26.588Z,7.22
2023-04-20T11:01:14.506Z,5.43
2023-04-20T11:03:43.169Z,6.00
2023-04-20T11:06:25.255Z,5.93
2023-04-20T11:09:08.806Z,6.07
2023-04-20T11:12:22.914Z,6.03
2023-04-20T11:15:04.383Z,5.85
2023-04-20T11:17:39.427Z,5.05
2023-04-20T11:20:14.534Z,5.82
2023-04-20T11:23:06.983Z,6.00
2023-04-20T11:25:52.903Z,6.03
2023-04-20T11:28:34.730Z,5.72
2023-04-20T11:31:12.814Z,5.70
2023-04-20T11:33:42.803Z,5.47
2023-04-20T11:39:44.214Z,5.35
2023-04-20T11:42:36.318Z,5.60
2023-04-20T11:45:04.294Z,6.03
2023-04-20T11:48:18.008Z,5.55
2023-04-20T11:50:27.813Z,6.28
2023-04-20T11:53:07.700Z,6.20
2023-04-20T11:55:47.648Z,6.28
2023-04-20T11:58:34.110Z,5.63
2023-04-20T12:04:04.884Z,6.22
2023-04-20T12:06:32.250Z,5.80
2023-04-20T12:08:59.813Z,5.90
2023-04-20T12:11:26.979Z,6.35
2023-04-20T12:13:54.578Z,6.57
2023-04-20T12:16:21.795Z,6.53
2023-04-20T12:18:48.986Z,6.00
2023-04-20T12:21:16.009Z,5.47
2023-04-20T12:23:44.548Z,6.35
2023-04-20T12:26:12.224Z,5.55
2023-04-20T12:28:39.584Z,5.68
2023-04-20T12:31:07.777Z,6.20
2023-04-20T12:33:34.774Z,5.40
2023-04-20T12:36:01.755Z,6.18
2023-04-20T12:38:28.807Z,5.95
2023-04-20T12:40:56.009Z,5.38
2023-04-20T12:43:22.997Z,5.88
2023-04-20T12:45:50.388Z,5.70
2023-04-20T12:48:17.532Z,5.47
2023-04-20T12:50:44.604Z,6.18
2023-04-20T12:53:11.826Z,7.07
2023-04-20T12:55:39.041Z,5.95
2023-04-20T12:58:06.376Z,5.72
2023-04-20T13:00:33.563Z,6.05
2023-04-20T13:03:00.990Z,6.00
2023-04-20T13:05:28.406Z,5.80
2023-04-20T13:07:57.793Z,5.82
2023-04-20T13:10:25.594Z,5.78
2023-04-20T13:12:52.621Z,5.63
2023-04-20T13:15:31.976Z,5.93
2023-04-20T13:18:06.155Z,5.85
2023-04-20T13:20:33.398Z,6.15
2023-04-20T13:23:04.288Z,6.90
2023-04-20T13:25:33.495Z,6.28
2023-04-20T13:28:02.217Z,6.65
2023-04-20T13:30:29.407Z,6.30
2023-04-20T13:32:56.550Z,6.40
2023-04-20T13:35:24.378Z,6.32
2023-04-20T13:37:51.577Z,7.00
2023-04-20T13:40:18.623Z,5.75
2023-04-20T13:42:45.787Z,5.72
2023-04-20T13:45:13.080Z,6.28
2023-04-20T13:47:40.354Z,5.65
2023-04-20T13:50:08.985Z,6.10
2023-04-20T13:52:36.552Z,5.57
2023-04-20T13:55:04.885Z,5.35
2023-04-20T13:57:32.114Z,6.20
2023-04-20T14:00:01.056Z,5.78
2023-04-20T14:02:29.516Z,6.25
2023-04-20T14:04:56.855Z,5.93
2023-04-20T14:07:32.051Z,6.35
2023-04-20T14:10:03.005Z,5.80
2023-04-20T14:12:31.403Z,5.55
2023-04-20T14:14:59.038Z,6.20
2023-04-20T14:17:26.848Z,6.43
2023-04-20T14:19:54.224Z,7.13
2023-04-20T14:22:21.247Z,7.22
2023-04-20T14:24:48.753Z,6.55
2023-04-20T14:27:17.326Z,6.68
2023-04-20T14:29:44.815Z,6.40
2023-04-20T14:32:15.766Z,6.65
2023-04-20T14:34:42.909Z,7.25
2023-04-20T14:37:10.233Z,7.32
2023-04-20T14:39:37.333Z,6.63
2023-04-20T14:42:07.694Z,6.72
2023-04-20T14:44:36.241Z,6.95
2023-04-20T14:47:11.982Z,6.32
2023-04-20T14:49:40.522Z,6.40
2023-04-20T14:52:07.867Z,6.13
2023-04-20T14:54:35.124Z,6.50
2023-04-20T14:57:02.827Z,6.72
2023-04-20T14:59:31.194Z,7.60
2023-04-20T15:02:02.853Z,6.97
2023-04-20T15:04:30.875Z,6.88
2023-04-20T15:06:58.342Z,6.80
2023-04-20T15:09:25.855Z,7.13
2023-04-20T15:11:52.904Z,6.35
2023-04-20T15:14:21.160Z,7.28
2023-04-20T15:16:48.537Z,7.22
2023-04-20T15:19:15.985Z,7.63
2023-04-20T15:21:44.584Z,7.72
2023-04-20T15:24:11.952Z,7.70
2023-04-20T15:26:39.022Z,8.00
2023-04-20T15:29:06.504Z,7.90
2023-04-20T15:31:33.653Z,8.60
2023-04-20T15:34:01.701Z,8.07
2023-04-20T15:36:33.541Z,8.30
2023-04-20T15:39:00.652Z,7.95
2023-04-20T15:41:27.758Z,8.02
2023-04-20T15:43:54.763Z,8.40
2023-04-20T15:46:24.422Z,9.32
2023-04-20T15:48:51.530Z,8.77
2023-04-20T15:51:20.111Z,7.93
2023-04-20T15:53:52.269Z,8.32
2023-04-20T15:56:22.113Z,7.85
2023-04-20T15:58:50.099Z,8.73
2023-04-20T16:01:17.984Z,7.95
2023-04-20T16:03:46.355Z,8.38
2023-04-20T16:06:13.911Z,8.57
2023-04-20T16:08:41.876Z,8.55
2023-04-20T16:11:09.226Z,7.95
2023-04-20T16:13:37.308Z,8.60
2023-04-20T16:16:39.357Z,8.77
2023-04-20T16:19:06.936Z,8.40
2023-04-20T16:21:34.491Z,7.85
2023-04-20T16:24:01.832Z,8.40
2023-04-20T16:26:29.100Z,8.93
2023-04-20T16:28:56.350Z,9.45
2023-04-20T16:31:23.627Z,8.68
2023-04-20T16:33:50.992Z,8.35
2023-04-20T16:36:18.132Z,9.18
2023-04-20T16:38:48.211Z,10.23
2023-04-20T16:41:16.636Z,9.93
2023-04-20T16:43:43.787Z,9.48
2023-04-20T16:46:16.506Z,9.60
2023-04-20T16:51:11.376Z,10.57
2023-04-20T16:53:38.583Z,10.20
2023-04-20T16:56:06.325Z,9.85
2023-04-20T16:58:33.448Z,9.20
2023-04-20T17:01:00.754Z,8.73
2023-04-20T17:03:27.922Z,9.63
2023-04-20T17:05:55.140Z,9.68
2023-04-20T17:08:25.058Z,10.05
2023-04-20T17:10:52.266Z,10.80
2023-04-20T17:13:22.911Z,10.30
2023-04-20T17:15:50.339Z,9.93
2023-04-20T17:18:17.514Z,10.73
2023-04-20T17:20:45.752Z,11.20
2023-04-20T17:23:16.179Z,10.20
2023-04-20T17:25:46.903Z,9.90
2023-04-20T17:28:14.807Z,10.20
2023-04-20T17:30:42.056Z,9.90
2023-04-20T17:33:12.250Z,10.35
2023-04-20T17:35:40.792Z,9.82
2023-04-20T17:38:10.821Z,10.07
2023-04-20T17:40:37.961Z,9.15
2023-04-20T17:43:05.199Z,10.43
2023-04-20T17:45:32.367Z,9.48
2023-04-20T17:47:59.473Z,10.00
2023-04-20T17:50:26.631Z,10.75
2023-04-20T17:52:53.859Z,10.60
2023-04-20T17:55:21.003Z,11.93
2023-04-20T17:57:51.070Z,11.43
2023-04-20T18:00:44.757Z,10.20
2023-04-20T18:04:28.551Z,10.63
2023-04-20T18:13:07.200Z,10.80
2023-04-20T18:16:08.067Z,11.20
2023-04-20T18:18:50.768Z,11.70
2023-04-20T18:21:35.055Z,11.05
2023-04-20T18:24:18.814Z,12.07
2023-04-20T18:30:12.852Z,10.95
2023-04-20T18:32:56.533Z,10.80
2023-04-20T18:35:55.274Z,10.45
2023-04-20T18:41:23.886Z,10.07
2023-04-20T18:44:04.510Z,12.18
2023-04-20T18:46:49.621Z,11.70
2023-04-20T18:49:34.270Z,10.55
2023-04-20T18:52:22.557Z,10.20
2023-04-20T18:55:02.498Z,11.45
2023-04-20T18:58:12.069Z,11.57
2023-04-20T19:01:04.674Z,12.30
2023-04-20T19:03:34.511Z,12.20
2023-04-20T19:30:26.484Z,12.88
2023-04-20T20:14:46.180Z,13.30
2023-04-20T20:18:11.767Z,13.65
2023-04-20T20:25:05.348Z,13.50
2023-04-20T20:28:25.841Z,13.82
2023-04-20T20:31:01.161Z,17.58
2023-04-20T20:44:07.999Z,15.07
2023-04-20T20:47:37.116Z,14.38
2023-04-20T20:50:02.978Z,15.48
2023-04-20T20:53:07.655Z,14.05
2023-04-20T20:55:46.939Z,16.17
2023-04-20T20:58:45.939Z,14.68
2023-04-20T21:02:07.613Z,14.57
2023-04-20T21:05:12.283Z,14.13
2023-04-20T21:08:02.414Z,15.10
2023-04-20T21:21:11.391Z,14.77
2023-04-20T21:29:14.429Z,15.77
2023-04-20T21:32:43.003Z,20.08
2023-04-20T21:46:34.079Z,17.17
2023-04-20T22:01:47.089Z,26.85
2023-04-20T22:05:20.179Z,28.88
2023-04-20T22:17:21.298Z,31.30
2023-04-20T22:20:46.790Z,28.27
2023-04-20T22:24:02.380Z,30.45
2023-04-20T22:27:27.088Z,29.95
2023-04-20T22:30:52.114Z,29.95
2023-04-20T22:39:18.571Z,30.73
2023-04-20T22:50:54.653Z,31.70
2023-04-20T23:01:04.145Z,30.42
2023-04-20T23:02:35.822Z,33.13
2023-04-20T23:13:51.376Z,34.03
2023-04-20T23:17:11.357Z,33.78
2023-04-20T23:24:24.877Z,33.55
2023-04-20T23:31:05.150Z,30.67
2023-04-20T23:43:40.491Z,27.48
2023-04-20T23:46:11.756Z,27.77
2023-04-20T23:57:06.744Z,28.25
2023-04-20T23:59:17.074Z,26.50
